Tropical Cyclones
[Index]
Main Index Home Page Stock Weather Photos Extreme Storms Discussion Storm News and Storm Chasing Reports Tropical Cyclones / Hurricanes / Typhoons Weather Data and Links Wild Fires / Bushfires Weather Observation Techniques Weather Picture Catalogue Tornado Pictures and Reports Stock Video Footage and DVDs for sale
Season 2012-2013 Tropical Cyclone MITCHELL Track Map
Season 2012-2013 Summaries: [BoM-AU] [JTWC-AU] [JTWC-SIO] [JTWC-SPAC] [JTWC-SH]
<<- Previous TC | JTWC 2012-2013 Season | Next TC ->>

click for intensity scale information  Lat/long Grid: Show Hide

 Date Labels: Show Hide

Joint Typhoon Warning Centre Cyclone Data

Name: MITCHELL

27 Dec 2012 00:00 UTC to 31 Dec 2012 12:00 UTC

    date/time    lat    long     hPa   cat  kts
2012-12-27 00   14.1   114.5    1007         20          
2012-12-27 06   14.3   114.0    1007         20          
2012-12-27 12   14.5   113.3    1007         20          
2012-12-27 18   14.8   112.6    1004         25          
2012-12-28 00   15.1   112.0    1004         25          
2012-12-28 06   15.4   111.5    1004         25          
2012-12-28 12   15.8   111.1    1000         30          
2012-12-28 18   16.3   110.8     996         35          
2012-12-29 00   16.9   110.5     993    1    40          
2012-12-29 06   17.9   110.3     989    1    45          
2012-12-29 12   18.9   110.2     989    1    45          
2012-12-29 18   20.0   110.2     993    1    40          
2012-12-30 00   21.3   110.2     996         35          
2012-12-30 06   22.6   110.0    1000         30          
2012-12-30 12   23.9   109.9    1000         30          
2012-12-30 18   25.4   109.1    1004         25          
2012-12-31 00   26.9   108.3    1007         20          
2012-12-31 06   28.6   108.0    1007         20          
2012-12-31 12   30.0   108.4    1007         20          
Winds are 1-min average.

Tropical cyclone tracks developed by Michael Bath using data from the Joint Typhoon Warning Centre Best Tracks and Google Maps.


[Australian Severe Weather index] [Copyright Notice] [Email Contacts] [Search This Site] [Privacy Policy]
Document: tropical_cyclone_mitchell.htm Updated: 28 June 2017